createdAt,value
2023-11-20T00:00:14.158Z,100413.72
2023-11-20T00:02:43.692Z,100418.91
2023-11-20T00:05:13.210Z,100419.59
2023-11-20T00:07:43.654Z,100422.16
2023-11-20T00:10:12.602Z,100422.06
2023-11-20T00:12:41.836Z,100416.84
2023-11-20T00:15:12.212Z,100422.06
2023-11-20T00:17:40.977Z,100420.38
2023-11-20T00:20:10.310Z,100417.75
2023-11-20T00:22:39.818Z,100416.03
2023-11-20T00:25:10.427Z,100415.19
2023-11-20T00:27:39.150Z,100416.16
2023-11-20T00:30:09.508Z,100419.66
2023-11-20T00:32:39.627Z,100420.50
2023-11-20T00:35:09.566Z,100422.28
2023-11-20T00:37:39.379Z,100423.94
2023-11-20T00:40:12.455Z,100412.50
2023-11-20T00:42:42.248Z,100436.97
2023-11-20T00:45:11.760Z,100440.44
2023-11-20T00:47:40.519Z,100436.88
2023-11-20T00:50:10.703Z,100436.75
2023-11-20T00:52:39.344Z,100427.97
2023-11-20T00:55:12.505Z,100419.16
2023-11-20T00:57:41.997Z,100417.44
2023-11-20T01:00:13.373Z,100414.81
2023-11-20T01:02:42.637Z,100425.34
2023-11-20T01:05:12.673Z,100410.44
2023-11-20T01:07:42.607Z,100405.28
2023-11-20T01:10:12.989Z,100414.13
2023-11-20T01:12:41.767Z,100429.91
2023-11-20T01:15:11.599Z,100437.81
2023-11-20T01:17:40.704Z,100412.38
2023-11-20T01:20:12.449Z,100412.38
2023-11-20T01:22:41.269Z,100394.75
2023-11-20T01:25:12.088Z,100372.81
2023-11-20T01:27:41.002Z,100399.19
2023-11-20T01:30:10.656Z,100407.06
2023-11-20T01:32:39.784Z,100380.78
2023-11-20T01:35:10.154Z,100389.50
2023-11-20T01:37:39.221Z,100410.56
2023-11-20T01:40:09.310Z,100405.28
2023-11-20T01:42:39.495Z,100401.75
2023-11-20T01:45:09.779Z,100401.69
2023-11-20T01:47:38.987Z,100392.88
2023-11-20T01:50:10.185Z,100401.66
2023-11-20T01:52:42.400Z,100406.09
2023-11-20T01:55:14.049Z,100400.03
2023-11-20T01:57:46.519Z,100379.09
2023-11-20T02:00:18.263Z,100401.06
2023-11-20T02:02:47.978Z,100378.25
2023-11-20T02:05:16.720Z,100382.66
2023-11-20T02:07:45.384Z,100391.44
2023-11-20T02:10:14.768Z,100373.94
2023-11-20T02:12:44.958Z,100395.00
2023-11-20T02:15:13.698Z,100406.44
2023-11-20T02:17:42.452Z,100388.88
2023-11-20T02:20:12.007Z,100388.03
2023-11-20T02:22:40.656Z,100383.66
2023-11-20T02:25:10.201Z,100391.56
2023-11-20T02:27:55.513Z,100378.47
2023-11-20T02:30:26.080Z,100386.41
2023-11-20T02:32:54.854Z,100384.66
2023-11-20T02:35:25.457Z,100400.38
2023-11-20T02:37:55.151Z,100395.91
2023-11-20T02:40:23.854Z,100401.09
2023-11-20T02:42:52.565Z,100395.00
2023-11-20T02:45:21.570Z,100392.38
2023-11-20T02:47:51.739Z,100392.38
2023-11-20T02:50:20.637Z,100405.53
2023-11-20T02:52:49.674Z,100397.50
2023-11-20T02:55:18.082Z,100407.13
2023-11-20T02:57:47.444Z,100394.75
2023-11-20T03:00:16.694Z,100394.75
2023-11-20T03:02:45.489Z,100392.22
2023-11-20T03:05:15.595Z,100387.00
2023-11-20T03:07:44.616Z,100408.97
2023-11-20T03:10:14.996Z,100395.81
2023-11-20T03:12:43.809Z,100406.34
2023-11-20T03:15:12.464Z,100408.13
2023-11-20T03:17:41.221Z,100394.06
2023-11-20T03:20:12.371Z,100396.69
2023-11-20T03:22:42.375Z,100378.25
2023-11-20T03:25:12.374Z,100373.81
2023-11-20T03:27:41.999Z,100400.16
2023-11-20T03:30:11.412Z,100382.66
2023-11-20T03:32:40.266Z,100374.78
2023-11-20T03:35:10.967Z,100384.47
2023-11-20T03:37:41.428Z,100379.31
2023-11-20T03:40:11.127Z,100376.69
2023-11-20T03:42:39.811Z,100366.16
2023-11-20T03:45:09.259Z,100375.88
2023-11-20T03:47:38.020Z,100376.81
2023-11-20T03:50:08.377Z,100375.88
2023-11-20T03:52:37.435Z,100375.75
2023-11-20T03:55:10.942Z,100383.66
2023-11-20T03:57:40.133Z,100368.06
2023-11-20T04:00:10.087Z,100371.72
2023-11-20T04:02:38.811Z,100390.31
2023-11-20T04:05:08.395Z,100382.53
2023-11-20T04:07:37.247Z,100377.38
2023-11-20T04:10:06.945Z,100374.88
2023-11-20T04:12:37.118Z,100381.94
2023-11-20T04:15:06.326Z,100382.06
2023-11-20T04:17:35.998Z,100378.53
2023-11-20T04:20:06.476Z,100379.50
2023-11-20T04:22:35.464Z,100379.53
2023-11-20T04:25:06.523Z,100376.00
2023-11-20T04:27:36.944Z,100374.34
2023-11-20T04:30:06.674Z,100388.47
2023-11-20T04:32:35.341Z,100385.81
2023-11-20T04:35:04.064Z,100378.81
2023-11-20T04:37:32.676Z,100398.16
2023-11-20T04:40:02.003Z,100389.34
2023-11-20T04:42:30.762Z,100391.09
2023-11-20T04:45:00.844Z,100390.97
2023-11-20T04:47:29.542Z,100387.41
2023-11-20T04:49:58.152Z,100383.00
2023-11-20T04:52:27.107Z,100381.19
2023-11-20T04:54:56.922Z,100379.53
2023-11-20T04:57:25.723Z,100375.19
2023-11-20T04:59:54.534Z,100377.00
2023-11-20T05:02:26.305Z,100380.56
2023-11-20T05:04:55.868Z,100373.56
2023-11-20T05:07:24.466Z,100380.69
2023-11-20T05:09:55.437Z,100381.53
2023-11-20T05:12:24.937Z,100377.22
2023-11-20T05:14:54.396Z,100370.38
2023-11-20T05:17:24.367Z,100374.00
2023-11-20T05:19:52.991Z,100384.72
2023-11-20T05:22:21.577Z,100381.34
2023-11-20T05:24:50.395Z,100373.56
2023-11-20T05:27:19.516Z,100364.84
2023-11-20T05:29:48.433Z,100381.56
2023-11-20T05:32:17.213Z,100381.66
2023-11-20T05:34:47.174Z,100378.22
2023-11-20T05:37:15.839Z,100387.03
2023-11-20T05:39:45.730Z,100396.66
2023-11-20T05:42:14.480Z,100388.84
2023-11-20T05:44:43.083Z,100383.69
2023-11-20T05:47:11.726Z,100388.84
2023-11-20T05:49:40.410Z,100403.78
2023-11-20T05:52:10.407Z,100409.00
2023-11-20T05:54:39.210Z,100402.00
2023-11-20T05:57:08.522Z,100416.94
2023-11-20T05:59:37.207Z,100409.09
2023-11-20T06:02:07.062Z,100408.22
2023-11-20T06:04:35.735Z,100408.22
2023-11-20T06:07:04.567Z,100402.13
2023-11-20T06:09:34.659Z,100404.75
2023-11-20T06:12:03.492Z,100402.13
2023-11-20T06:14:32.124Z,100402.97
2023-11-20T06:17:01.193Z,100411.78
2023-11-20T06:19:29.964Z,100397.78
2023-11-20T06:21:59.770Z,100415.31
2023-11-20T06:24:28.605Z,100415.41
2023-11-20T06:26:58.568Z,100412.81
2023-11-20T06:29:27.159Z,100413.75
2023-11-20T06:31:55.873Z,100413.75
2023-11-20T06:34:24.803Z,100415.59
2023-11-20T06:36:53.467Z,100418.25
2023-11-20T06:39:22.735Z,100411.34
2023-11-20T06:41:52.624Z,100406.16
2023-11-20T06:44:23.675Z,100400.94
2023-11-20T06:46:54.043Z,100402.78
2023-11-20T06:49:22.783Z,100408.91
2023-11-20T06:51:51.368Z,100401.94
2023-11-20T06:54:19.053Z,100396.69
2023-11-20T06:56:47.998Z,100407.22
2023-11-20T06:59:17.643Z,100402.88
2023-11-20T07:01:48.354Z,100418.66
2023-11-20T07:04:19.339Z,100412.56
2023-11-20T07:06:50.795Z,100411.75
2023-11-20T07:09:22.011Z,100406.50
2023-11-20T07:11:50.701Z,100416.09
2023-11-20T07:14:19.448Z,100395.09
2023-11-20T07:16:49.871Z,100407.31
2023-11-20T07:19:18.639Z,100414.28
2023-11-20T07:21:47.441Z,100406.44
2023-11-20T07:24:16.303Z,100412.56
2023-11-20T07:26:45.001Z,100425.63
2023-11-20T07:29:13.646Z,100415.09
2023-11-20T07:31:42.555Z,100409.84
2023-11-20T07:34:12.862Z,100421.16
2023-11-20T07:36:41.557Z,100406.25
2023-11-20T07:39:10.825Z,100418.47
2023-11-20T07:41:39.576Z,100408.81
2023-11-20T07:44:09.302Z,100410.56
2023-11-20T07:46:38.811Z,100414.88
2023-11-20T07:49:08.063Z,100408.72
2023-11-20T07:51:38.079Z,100405.19
2023-11-20T07:54:09.047Z,100420.03
2023-11-20T07:56:37.667Z,100409.50
2023-11-20T07:59:06.653Z,100423.41
2023-11-20T08:01:35.415Z,100422.47
2023-11-20T08:04:05.444Z,100417.16
2023-11-20T08:06:34.313Z,100413.56
2023-11-20T08:09:04.526Z,100413.47
2023-11-20T08:11:33.323Z,100408.09
2023-11-20T08:14:01.954Z,100411.53
2023-11-20T08:16:30.800Z,100428.97
2023-11-20T08:19:02.030Z,100421.88
2023-11-20T08:21:30.855Z,100423.59
2023-11-20T08:23:59.465Z,100402.56
2023-11-20T08:26:29.553Z,100412.22
2023-11-20T08:28:58.210Z,100415.75
2023-11-20T08:31:27.058Z,100419.25
2023-11-20T08:33:55.823Z,100421.84
2023-11-20T08:36:24.474Z,100420.06
2023-11-20T08:38:53.123Z,100427.03
2023-11-20T08:41:23.882Z,100442.78
2023-11-20T08:43:53.850Z,100421.75
2023-11-20T08:46:23.666Z,100427.03
2023-11-20T08:48:52.382Z,100430.56
2023-11-20T08:51:21.166Z,100424.50
2023-11-20T08:53:49.786Z,100425.41
2023-11-20T08:56:18.385Z,100420.16
2023-11-20T08:58:47.012Z,100421.97
2023-11-20T09:01:17.638Z,100415.88
2023-11-20T09:03:46.372Z,100420.75
2023-11-20T09:06:15.012Z,100412.72
2023-11-20T09:08:43.589Z,100405.66
2023-11-20T09:11:12.374Z,100400.59
2023-11-20T09:13:41.082Z,100404.25
2023-11-20T09:16:10.536Z,100400.84
2023-11-20T09:18:42.574Z,100406.94
2023-11-20T09:21:11.353Z,100406.88
2023-11-20T09:23:39.937Z,100398.84
2023-11-20T09:26:12.501Z,100403.22
2023-11-20T09:28:41.569Z,100400.72
2023-11-20T09:31:17.680Z,100400.84
2023-11-20T09:33:47.786Z,100409.75
2023-11-20T09:36:16.422Z,100398.44
2023-11-20T09:38:46.612Z,100409.75
2023-11-20T09:41:15.646Z,100394.72
2023-11-20T09:43:45.832Z,100398.28
2023-11-20T09:46:17.122Z,100370.88
2023-11-20T09:48:50.196Z,100380.69
2023-11-20T09:51:24.938Z,100387.50
2023-11-20T09:53:54.167Z,100390.22
2023-11-20T09:56:22.889Z,100372.47
2023-11-20T09:58:53.621Z,100359.31
2023-11-20T10:01:23.426Z,100367.38
2023-11-20T10:03:55.092Z,100354.41
2023-11-20T10:06:26.577Z,100373.53
2023-11-20T10:08:57.242Z,100366.53
2023-11-20T10:11:26.111Z,100366.63
2023-11-20T10:13:55.564Z,100367.03
2023-11-20T10:16:25.647Z,100356.16
2023-11-20T10:18:55.981Z,100358.31
2023-11-20T10:21:26.356Z,100355.16
2023-11-20T10:23:56.560Z,100355.50
2023-11-20T10:26:25.760Z,100340.16
2023-11-20T10:28:57.748Z,100344.69
2023-11-20T10:31:28.952Z,100347.22
2023-11-20T10:34:08.033Z,100342.53
2023-11-20T10:36:37.437Z,100330.06
2023-11-20T10:39:07.453Z,100333.47
2023-11-20T10:41:44.714Z,100334.56
2023-11-20T10:44:13.769Z,100350.50
2023-11-20T10:46:43.282Z,100311.69
2023-11-20T10:49:18.710Z,100317.66
2023-11-20T10:51:55.899Z,100324.72
2023-11-20T10:54:31.007Z,100303.19
2023-11-20T10:57:04.877Z,100304.06
2023-11-20T10:59:37.579Z,100301.13
2023-11-20T11:02:11.570Z,100283.06
2023-11-20T11:04:42.320Z,100281.91
2023-11-20T11:07:14.032Z,100272.97
2023-11-20T11:09:45.782Z,100276.06
2023-11-20T11:12:17.132Z,100269.75
2023-11-20T11:14:46.324Z,100264.28
2023-11-20T11:17:19.926Z,100261.41
2023-11-20T11:20:01.722Z,100273.78
2023-11-20T11:22:34.514Z,100265.13
2023-11-20T11:25:11.891Z,100265.38
2023-11-20T11:27:50.333Z,100265.19
2023-11-20T11:30:21.578Z,100260.16
2023-11-20T11:33:10.503Z,100262.59
2023-11-20T11:36:10.014Z,100259.88
2023-11-20T11:38:46.887Z,100235.53
2023-11-20T11:41:28.629Z,100241.69
2023-11-20T11:44:03.963Z,100245.97
2023-11-20T11:46:36.752Z,100241.41
2023-11-20T11:49:22.078Z,100241.63
2023-11-20T11:51:53.873Z,100236.84
2023-11-20T11:54:24.356Z,100238.25
2023-11-20T11:57:00.849Z,100231.44
2023-11-20T11:59:44.127Z,100227.84
2023-11-20T12:02:19.279Z,100225.50
2023-11-20T12:05:09.279Z,100219.06
2023-11-20T12:07:56.071Z,100217.66
2023-11-20T12:10:44.144Z,100202.25
2023-11-20T12:13:16.738Z,100206.59
2023-11-20T12:15:49.656Z,100199.69
2023-11-20T12:18:22.434Z,100199.81
2023-11-20T12:21:06.158Z,100193.72
2023-11-20T12:23:38.020Z,100196.34
2023-11-20T12:26:09.023Z,100205.41
2023-11-20T12:28:38.348Z,100193.72
2023-11-20T12:31:08.755Z,100187.88
2023-11-20T12:33:40.425Z,100186.19
2023-11-20T12:36:10.293Z,100184.84
2023-11-20T12:38:43.146Z,100178.31
2023-11-20T12:41:12.859Z,100174.09
2023-11-20T12:43:41.522Z,100173.44
2023-11-20T12:46:13.614Z,100188.16
2023-11-20T12:48:42.573Z,100173.75
2023-11-20T12:51:11.351Z,100174.63
2023-11-20T12:53:41.454Z,100172.47
2023-11-20T12:56:11.282Z,100182.25
2023-11-20T12:58:42.808Z,100183.63
2023-11-20T13:01:12.387Z,100171.53
2023-11-20T13:03:41.674Z,100170.50
2023-11-20T13:06:11.937Z,100177.66
2023-11-20T13:08:43.074Z,100176.81
2023-11-20T13:11:13.896Z,100167.13
2023-11-20T13:13:44.765Z,100183.28
2023-11-20T13:16:19.676Z,100174.03
2023-11-20T13:18:50.351Z,100169.22
2023-11-20T13:21:23.192Z,100161.91
2023-11-20T13:24:02.190Z,100164.06
2023-11-20T13:26:31.436Z,100167.94
2023-11-20T13:29:01.006Z,100167.47
2023-11-20T13:31:37.338Z,100170.25
2023-11-20T13:34:08.487Z,100165.13
2023-11-20T13:36:39.889Z,100166.09
2023-11-20T13:39:19.851Z,100163.63
2023-11-20T13:41:48.865Z,100154.16
2023-11-20T13:44:18.678Z,100152.72
2023-11-20T13:46:47.584Z,100154.03
2023-11-20T13:49:16.273Z,100149.06
2023-11-20T13:51:45.028Z,100147.97
2023-11-20T13:54:14.989Z,100148.16
2023-11-20T13:56:43.720Z,100146.69
2023-11-20T13:59:12.349Z,100145.69
2023-11-20T14:01:41.279Z,100145.16
2023-11-20T14:04:12.221Z,100139.44
2023-11-20T14:06:41.814Z,100138.13
2023-11-20T14:09:10.420Z,100137.47
2023-11-20T14:11:40.480Z,100141.75
2023-11-20T14:14:09.140Z,100137.34
2023-11-20T14:16:38.748Z,100144.25
2023-11-20T14:19:10.755Z,100141.28
2023-11-20T14:21:39.830Z,100151.78
2023-11-20T14:24:09.992Z,100150.19
2023-11-20T14:26:40.274Z,100147.69
2023-11-20T14:29:08.884Z,100154.63
2023-11-20T14:31:38.635Z,100153.78
2023-11-20T14:34:07.521Z,100138.19
2023-11-20T14:36:36.182Z,100151.47
2023-11-20T14:39:05.151Z,100155.00
2023-11-20T14:41:33.754Z,100154.16
2023-11-20T14:44:04.383Z,100154.16
2023-11-20T14:46:33.367Z,100155.69
2023-11-20T14:49:02.243Z,100142.28
2023-11-20T14:51:30.963Z,100142.75
2023-11-20T14:54:02.323Z,100140.47
2023-11-20T14:56:30.932Z,100133.75
2023-11-20T14:58:59.568Z,100133.91
2023-11-20T15:01:30.315Z,100133.00
2023-11-20T15:03:59.102Z,100136.53
2023-11-20T15:06:27.595Z,100128.59
2023-11-20T15:08:56.301Z,100135.56
2023-11-20T15:11:24.887Z,100126.81
2023-11-20T15:13:54.230Z,100135.41
2023-11-20T15:16:23.017Z,100137.19
2023-11-20T15:18:53.089Z,100137.94
2023-11-20T15:21:21.768Z,100136.16
2023-11-20T15:23:50.447Z,100142.34
2023-11-20T15:26:19.050Z,100137.84
2023-11-20T15:28:48.674Z,100144.78
2023-11-20T15:31:17.782Z,100135.22
2023-11-20T15:33:46.392Z,100136.06
2023-11-20T15:36:16.408Z,100132.59
2023-11-20T15:38:45.489Z,100129.06
2023-11-20T15:41:13.820Z,100132.50
2023-11-20T15:43:42.462Z,100139.44
2023-11-20T15:46:15.007Z,100130.72
2023-11-20T15:48:44.927Z,100132.50
2023-11-20T15:51:15.614Z,100129.88
2023-11-20T15:53:44.288Z,100128.09
2023-11-20T15:56:16.145Z,100130.78
2023-11-20T15:58:44.836Z,100133.41
2023-11-20T16:01:17.117Z,100134.31
2023-11-20T16:03:50.679Z,100127.34
2023-11-20T16:06:20.726Z,100127.34
2023-11-20T16:08:49.425Z,100115.16
2023-11-20T16:11:18.122Z,100123.03
2023-11-20T16:13:46.818Z,100104.66
2023-11-20T16:16:15.558Z,100109.06
2023-11-20T16:18:44.287Z,100114.25
2023-11-20T16:21:13.014Z,100111.63
2023-11-20T16:23:44.448Z,100109.81
2023-11-20T16:26:14.820Z,100114.09
2023-11-20T16:28:43.816Z,100109.72
2023-11-20T16:31:13.313Z,100114.88
2023-11-20T16:33:42.572Z,100117.50
2023-11-20T16:36:11.614Z,100112.25
2023-11-20T16:38:40.493Z,100109.72
2023-11-20T16:41:11.056Z,100110.59
2023-11-20T16:43:39.747Z,100105.41
2023-11-20T16:46:08.924Z,100108.97
2023-11-20T16:48:37.978Z,100115.91
2023-11-20T16:51:07.245Z,100109.81
2023-11-20T16:53:36.939Z,100119.34
2023-11-20T16:56:06.186Z,100115.81
2023-11-20T16:58:36.255Z,100111.41
2023-11-20T17:01:05.050Z,100113.13
2023-11-20T17:03:34.353Z,100107.88
2023-11-20T17:06:03.062Z,100109.59
2023-11-20T17:08:31.674Z,100104.38
2023-11-20T17:11:00.292Z,100110.47
2023-11-20T17:13:29.116Z,100106.06
2023-11-20T17:15:59.256Z,100106.91
2023-11-20T17:18:27.887Z,100108.69
2023-11-20T17:20:56.517Z,100109.53
2023-11-20T17:23:25.727Z,100111.31
2023-11-20T17:25:54.490Z,100109.59
2023-11-20T17:28:23.183Z,100107.88
2023-11-20T17:30:51.828Z,100113.13
2023-11-20T17:33:21.835Z,100109.72
2023-11-20T17:35:50.474Z,100115.00
2023-11-20T17:38:19.090Z,100110.69
2023-11-20T17:40:47.720Z,100109.09
2023-11-20T17:43:17.006Z,100110.00
2023-11-20T17:45:46.389Z,100113.53
2023-11-20T17:48:15.127Z,100110.91
2023-11-20T17:50:46.000Z,100108.28
2023-11-20T17:53:14.674Z,100101.34
2023-11-20T17:55:43.497Z,100106.56
2023-11-20T17:58:12.342Z,100099.63
2023-11-20T18:00:41.027Z,100100.53
2023-11-20T18:03:10.115Z,100092.66
2023-11-20T18:05:42.094Z,100095.34
2023-11-20T18:08:12.936Z,100101.44
2023-11-20T18:10:42.342Z,100103.13
2023-11-20T18:13:11.019Z,100103.13
2023-11-20T18:15:43.396Z,100102.25
2023-11-20T18:18:12.334Z,100107.50
2023-11-20T18:20:41.120Z,100103.03
2023-11-20T18:23:11.213Z,100101.22
2023-11-20T18:25:39.977Z,100104.66
2023-11-20T18:28:08.866Z,100102.84
2023-11-20T18:30:37.578Z,100103.72
2023-11-20T18:33:06.535Z,100090.53
2023-11-20T18:35:35.489Z,100093.97
2023-11-20T18:38:04.542Z,100099.22
2023-11-20T18:40:34.804Z,100106.16
2023-11-20T18:43:03.424Z,100107.97
2023-11-20T18:45:32.236Z,100098.41
2023-11-20T18:48:00.857Z,100101.94
2023-11-20T18:50:29.811Z,100094.94
2023-11-20T18:52:58.431Z,100104.56
2023-11-20T18:55:27.110Z,100104.56
2023-11-20T18:57:57.166Z,100099.31
2023-11-20T19:00:25.891Z,100108.97
2023-11-20T19:02:56.176Z,100107.22
2023-11-20T19:05:25.069Z,100104.66
2023-11-20T19:07:55.338Z,100094.19
2023-11-20T19:10:24.606Z,100094.22
2023-11-20T19:12:53.500Z,100100.31
2023-11-20T19:15:25.947Z,100100.31
2023-11-20T19:17:54.710Z,100096.84
2023-11-20T19:20:23.441Z,100108.19
2023-11-20T19:22:52.148Z,100100.38
2023-11-20T19:25:20.813Z,100100.31
2023-11-20T19:27:51.895Z,100102.09
2023-11-20T19:30:23.350Z,100103.84
2023-11-20T19:32:52.121Z,100104.78
2023-11-20T19:35:22.462Z,100104.78
2023-11-20T19:37:53.140Z,100103.97
2023-11-20T19:40:23.087Z,100099.63
2023-11-20T19:42:52.494Z,100103.13
2023-11-20T19:45:25.754Z,100097.00
2023-11-20T19:47:55.942Z,100098.78
2023-11-20T19:50:24.780Z,100099.63
2023-11-20T19:52:53.450Z,100094.38
2023-11-20T19:55:22.196Z,100079.50
2023-11-20T19:57:50.831Z,100073.41
2023-11-20T20:00:20.892Z,100076.06
2023-11-20T20:02:52.887Z,100071.69
2023-11-20T20:05:21.382Z,100076.91
2023-11-20T20:07:52.345Z,100079.53
2023-11-20T20:10:21.935Z,100075.22
2023-11-20T20:12:50.615Z,100071.78
2023-11-20T20:15:19.688Z,100075.31
2023-11-20T20:17:49.337Z,100070.19
2023-11-20T20:20:20.264Z,100064.13
2023-11-20T20:22:48.955Z,100079.00
2023-11-20T20:25:19.145Z,100074.66
2023-11-20T20:27:48.641Z,100068.56
2023-11-20T20:30:18.059Z,100069.44
2023-11-20T20:32:48.788Z,100072.91
2023-11-20T20:35:18.952Z,100073.81
2023-11-20T20:37:47.885Z,100074.72
2023-11-20T20:40:23.323Z,100075.63
2023-11-20T20:42:52.226Z,100072.19
2023-11-20T20:45:45.149Z,100079.31
2023-11-20T20:52:16.375Z,100073.50
2023-11-20T20:54:45.215Z,100070.09
2023-11-20T20:57:14.239Z,100078.84
2023-11-20T20:59:43.086Z,100076.28
2023-11-20T21:02:11.698Z,100069.31
2023-11-20T21:04:40.787Z,100071.94
2023-11-20T21:07:09.571Z,100071.16
2023-11-20T21:09:39.602Z,100072.84
2023-11-20T21:12:09.561Z,100072.84
2023-11-20T21:14:38.190Z,100066.75
2023-11-20T21:17:06.875Z,100061.53
2023-11-20T21:19:35.578Z,100060.66
2023-11-20T21:22:04.980Z,100063.22
2023-11-20T21:24:34.250Z,100064.06
2023-11-20T21:27:04.438Z,100068.47
2023-11-20T21:29:33.006Z,100058.84
2023-11-20T21:32:03.235Z,100057.97
2023-11-20T21:34:32.033Z,100046.66
2023-11-20T21:37:00.671Z,100046.66
2023-11-20T21:39:30.730Z,100052.75
2023-11-20T21:41:59.360Z,100048.34
2023-11-20T21:44:29.445Z,100044.84
2023-11-20T21:46:58.214Z,100046.63
2023-11-20T21:49:26.901Z,100044.00
2023-11-20T21:51:55.511Z,100046.56
2023-11-20T21:54:24.099Z,100050.00
2023-11-20T21:56:52.891Z,100056.00
2023-11-20T21:59:21.482Z,100060.38
2023-11-20T22:01:51.669Z,100050.75
2023-11-20T22:04:20.651Z,100053.28
2023-11-20T22:06:49.267Z,100050.66
2023-11-20T22:09:17.961Z,100055.03
2023-11-20T22:11:48.490Z,100058.53
2023-11-20T22:14:18.606Z,100058.53
2023-11-20T22:16:47.391Z,100049.03
2023-11-20T22:19:17.196Z,100063.88
2023-11-20T22:21:45.943Z,100055.13
2023-11-20T22:24:14.769Z,100052.50
2023-11-20T22:26:43.681Z,100056.84
2023-11-20T22:29:12.792Z,100055.06
2023-11-20T22:31:41.933Z,100060.28
2023-11-20T22:34:10.845Z,100062.88
2023-11-20T22:36:40.907Z,100060.28
2023-11-20T22:39:09.567Z,100056.94
2023-11-20T22:41:38.188Z,100053.69
2023-11-20T22:44:07.396Z,100057.34
2023-11-20T22:46:36.022Z,100050.69
2023-11-20T22:49:05.233Z,100053.53
2023-11-20T22:51:34.796Z,100050.25
2023-11-20T22:54:04.983Z,100054.75
2023-11-20T22:56:34.001Z,100049.72
2023-11-20T22:59:02.613Z,100049.03
2023-11-20T23:01:31.329Z,100046.56
2023-11-20T23:04:00.950Z,100054.50
2023-11-20T23:06:29.772Z,100058.13
2023-11-20T23:08:58.370Z,100046.91
2023-11-20T23:11:29.654Z,100048.72
2023-11-20T23:13:58.349Z,100043.66
2023-11-20T23:16:27.332Z,100038.50
2023-11-20T23:18:56.229Z,100030.66
2023-11-20T23:21:24.993Z,100037.72
2023-11-20T23:23:53.750Z,100036.91
2023-11-20T23:26:23.588Z,100043.06
2023-11-20T23:28:53.901Z,100043.16
2023-11-20T23:31:22.590Z,100039.72
2023-11-20T23:33:51.579Z,100040.63
2023-11-20T23:36:20.162Z,100038.88
2023-11-20T23:38:49.066Z,100042.41
2023-11-20T23:41:17.748Z,100032.88
2023-11-20T23:43:46.374Z,100032.03
2023-11-20T23:46:16.405Z,100038.19
2023-11-20T23:48:45.097Z,100034.69
2023-11-20T23:51:13.702Z,100036.44
2023-11-20T23:53:43.112Z,100033.81
2023-11-20T23:56:11.786Z,100032.97
2023-11-20T23:58:40.442Z,100040.78
